createdAt,value
2023-04-11T00:01:23.090Z,39.45
2023-04-11T00:04:10.539Z,39.45
2023-04-11T00:06:57.941Z,39.54
2023-04-11T00:09:45.285Z,39.57
2023-04-11T00:12:32.641Z,39.71
2023-04-11T00:15:19.976Z,39.63
2023-04-11T00:18:07.309Z,39.64
2023-04-11T00:20:54.622Z,39.82
2023-04-11T00:23:41.941Z,39.92
2023-04-11T00:26:29.227Z,39.82
2023-04-11T00:29:16.595Z,39.90
2023-04-11T00:32:04.075Z,40.08
2023-04-11T00:34:52.010Z,40.25
2023-04-11T00:37:39.358Z,40.13
2023-04-11T00:40:26.690Z,40.52
2023-04-11T00:43:14.006Z,40.38
2023-04-11T00:46:01.374Z,40.39
2023-04-11T00:48:48.766Z,40.44
2023-04-11T00:51:36.078Z,40.51
2023-04-11T00:54:23.394Z,40.38
2023-04-11T00:57:10.703Z,40.28
2023-04-11T00:59:57.995Z,40.50
2023-04-11T01:02:45.555Z,40.34
2023-04-11T01:05:32.984Z,40.35
2023-04-11T01:08:20.326Z,40.25
2023-04-11T01:11:07.646Z,40.45
2023-04-11T01:13:54.962Z,40.49
2023-04-11T01:16:42.333Z,40.68
2023-04-11T01:19:29.694Z,40.80
2023-04-11T01:22:16.965Z,40.91
2023-04-11T01:25:04.325Z,40.98
2023-04-11T01:27:51.921Z,40.94
2023-04-11T01:30:39.331Z,41.35
2023-04-11T01:33:26.644Z,41.59
2023-04-11T01:36:14.000Z,41.81
2023-04-11T01:39:01.335Z,41.92
2023-04-11T01:41:48.667Z,41.99
2023-04-11T01:44:36.014Z,41.72
2023-04-11T01:47:23.413Z,41.75
2023-04-11T01:50:10.741Z,42.08
2023-04-11T01:52:58.080Z,42.36
2023-04-11T01:55:45.411Z,42.52
2023-04-11T01:58:32.749Z,42.38
2023-04-11T02:01:20.141Z,42.11
2023-04-11T02:04:07.649Z,42.20
2023-04-11T02:06:55.041Z,42.14
2023-04-11T02:09:42.364Z,42.37
2023-04-11T02:12:29.695Z,42.42
2023-04-11T02:15:17.029Z,42.54
2023-04-11T02:18:04.359Z,42.37
2023-04-11T02:20:51.754Z,42.27
2023-04-11T02:23:39.098Z,42.34
2023-04-11T02:26:26.423Z,42.64
2023-04-11T02:29:13.697Z,42.87
2023-04-11T02:32:01.143Z,42.63
2023-04-11T02:34:48.572Z,42.65
2023-04-11T02:37:35.911Z,42.42
2023-04-11T02:40:23.246Z,42.22
2023-04-11T02:43:10.586Z,42.23
2023-04-11T02:46:09.503Z,42.41
2023-04-11T02:48:59.353Z,42.46
2023-04-11T02:51:46.692Z,42.51
2023-04-11T02:54:34.022Z,42.71
2023-04-11T02:57:21.339Z,42.61
2023-04-11T03:00:08.668Z,42.75
2023-04-11T03:02:56.069Z,43.07
2023-04-11T03:05:43.452Z,43.06
2023-04-11T03:08:30.799Z,43.57
2023-04-11T03:11:18.224Z,43.87
2023-04-11T03:14:05.547Z,44.57
2023-04-11T03:16:52.864Z,44.68
2023-04-11T03:19:40.172Z,44.89
2023-04-11T03:22:27.525Z,45.10
2023-04-11T03:25:14.863Z,44.68
2023-04-11T03:28:02.230Z,45.39
2023-04-11T03:30:49.549Z,46.21
2023-04-11T03:33:36.934Z,46.22
2023-04-11T03:36:24.239Z,45.22
2023-04-11T03:39:11.799Z,45.66
2023-04-11T03:41:59.096Z,46.44
2023-04-11T03:44:46.393Z,45.92
2023-04-11T03:47:33.732Z,46.88
2023-04-11T03:50:21.077Z,46.51
2023-04-11T03:53:08.415Z,46.04
2023-04-11T03:55:55.721Z,45.85
2023-04-11T03:58:43.050Z,45.65
2023-04-11T04:01:30.350Z,45.37
2023-04-11T04:04:17.772Z,45.21
2023-04-11T04:07:05.152Z,45.75
2023-04-11T04:09:52.479Z,45.81
2023-04-11T04:12:39.820Z,45.48
2023-04-11T04:15:27.154Z,45.41
2023-04-11T04:18:14.482Z,45.75
2023-04-11T04:21:01.811Z,45.53
2023-04-11T04:23:49.160Z,45.93
2023-04-11T04:26:36.521Z,45.81
2023-04-11T04:29:23.842Z,46.46
2023-04-11T04:32:11.817Z,47.15
2023-04-11T04:34:59.180Z,47.15
2023-04-11T04:37:46.564Z,46.67
2023-04-11T04:40:33.905Z,46.20
2023-04-11T04:43:21.212Z,46.98
2023-04-11T04:46:08.554Z,46.82
2023-04-11T04:48:55.954Z,46.63
2023-04-11T04:51:43.306Z,46.79
2023-04-11T04:54:30.640Z,46.36
2023-04-11T04:57:17.974Z,46.03
2023-04-11T05:00:05.343Z,46.45
2023-04-11T05:02:52.804Z,46.93
2023-04-11T05:05:40.235Z,46.58
2023-04-11T05:08:27.568Z,46.81
2023-04-11T05:11:14.945Z,46.56
2023-04-11T05:14:02.282Z,47.09
2023-04-11T05:16:49.666Z,46.54
2023-04-11T05:19:37.028Z,46.53
2023-04-11T05:22:24.368Z,46.30
2023-04-11T05:25:11.663Z,46.08
2023-04-11T05:27:59.023Z,45.94
2023-04-11T05:30:46.374Z,45.81
2023-04-11T05:33:33.747Z,45.68
2023-04-11T05:36:21.070Z,45.63
2023-04-11T05:39:08.426Z,45.62
2023-04-11T05:41:55.717Z,45.82
2023-04-11T05:44:43.221Z,46.06
2023-04-11T05:47:30.561Z,46.23
2023-04-11T05:50:17.897Z,46.28
2023-04-11T05:53:05.204Z,47.10
2023-04-11T05:55:52.522Z,47.35
2023-04-11T05:58:39.849Z,47.83
2023-04-11T06:01:27.178Z,48.38
2023-04-11T06:04:14.659Z,48.42
2023-04-11T06:07:02.054Z,47.92
2023-04-11T06:09:49.375Z,48.07
2023-04-11T06:12:36.704Z,48.65
2023-04-11T06:15:24.010Z,48.48
2023-04-11T06:18:11.384Z,48.66
2023-04-11T06:20:58.710Z,48.40
2023-04-11T06:23:46.057Z,47.87
2023-04-11T06:26:33.392Z,47.76
2023-04-11T06:29:20.739Z,48.21
2023-04-11T06:32:08.050Z,48.84
2023-04-11T06:34:55.377Z,48.75
2023-04-11T06:37:42.699Z,48.95
2023-04-11T06:40:30.154Z,48.52
2023-04-11T06:43:17.536Z,48.17
2023-04-11T06:46:04.908Z,48.27
2023-04-11T06:48:52.261Z,47.91
2023-04-11T06:51:39.578Z,47.85
2023-04-11T06:54:26.909Z,47.67
2023-04-11T06:57:14.222Z,47.48
2023-04-11T07:00:01.513Z,47.35
2023-04-11T07:02:49.116Z,47.36
2023-04-11T07:05:39.088Z,47.30
2023-04-11T07:08:26.893Z,47.27
2023-04-11T07:11:14.172Z,47.17
2023-04-11T07:14:01.502Z,48.19
2023-04-11T07:16:48.774Z,50.00
2023-04-11T07:19:36.106Z,51.86
2023-04-11T07:22:23.397Z,53.44
2023-04-11T07:25:10.686Z,53.57
2023-04-11T07:27:58.001Z,54.37
2023-04-11T07:30:45.432Z,54.48
2023-04-11T07:33:32.922Z,54.82
2023-04-11T07:36:20.258Z,54.72
2023-04-11T07:39:07.600Z,54.83
2023-04-11T07:41:54.928Z,54.74
2023-04-11T07:44:42.248Z,54.79
2023-04-11T07:47:29.639Z,55.28
2023-04-11T07:50:16.991Z,55.09
2023-04-11T07:53:04.368Z,55.39
2023-04-11T07:55:51.642Z,54.86
2023-04-11T07:58:39.017Z,55.20
2023-04-11T08:01:26.319Z,55.50
2023-04-11T08:04:13.818Z,55.49
2023-04-11T08:07:01.485Z,55.61
2023-04-11T08:09:48.790Z,55.62
2023-04-11T08:12:36.117Z,55.71
2023-04-11T08:15:23.457Z,55.64
2023-04-11T08:18:12.268Z,55.87
2023-04-11T08:20:59.839Z,55.79
2023-04-11T08:23:47.791Z,55.82
2023-04-11T08:26:35.114Z,55.82
2023-04-11T08:29:22.395Z,55.69
2023-04-11T08:32:09.712Z,55.87
2023-04-11T08:34:56.997Z,55.97
2023-04-11T08:37:44.320Z,55.66
2023-04-11T08:40:31.658Z,55.42
2023-04-11T08:43:19.056Z,54.92
2023-04-11T08:46:06.415Z,54.44
2023-04-11T08:48:53.753Z,54.65
2023-04-11T08:51:41.050Z,54.98
2023-04-11T08:54:28.757Z,55.00
2023-04-11T08:57:16.106Z,55.02
2023-04-11T09:00:03.405Z,55.29
2023-04-11T09:02:50.777Z,55.44
2023-04-11T09:05:38.231Z,55.34
2023-04-11T09:08:25.548Z,55.29
2023-04-11T09:11:12.909Z,55.25
2023-04-11T09:14:00.213Z,55.39
2023-04-11T09:16:47.565Z,55.46
2023-04-11T09:19:34.933Z,55.73
2023-04-11T09:22:22.397Z,55.73
2023-04-11T09:25:09.686Z,56.10
2023-04-11T09:27:57.022Z,56.08
2023-04-11T09:30:44.328Z,56.21
2023-04-11T09:33:31.675Z,55.96
2023-04-11T09:36:19.046Z,55.75
2023-04-11T09:39:06.376Z,55.67
2023-04-11T09:41:53.704Z,55.43
2023-04-11T09:44:41.039Z,55.23
2023-04-11T09:47:28.396Z,54.92
2023-04-11T09:50:15.768Z,54.57
2023-04-11T09:53:03.089Z,54.32
2023-04-11T09:55:50.393Z,54.30
2023-04-11T09:58:37.771Z,54.29
2023-04-11T10:01:25.169Z,54.14
2023-04-11T10:04:12.554Z,54.40
2023-04-11T10:06:59.902Z,54.39
2023-04-11T10:09:47.240Z,54.20
2023-04-11T10:12:34.521Z,54.09
2023-04-11T10:15:21.905Z,54.15
2023-04-11T10:18:09.292Z,54.19
2023-04-11T10:20:56.679Z,54.41
2023-04-11T10:23:43.987Z,54.69
2023-04-11T10:26:31.315Z,54.30
2023-04-11T10:29:18.619Z,54.24
2023-04-11T10:32:05.994Z,54.14
2023-04-11T10:34:53.347Z,53.82
2023-04-11T10:37:40.694Z,53.65
2023-04-11T10:40:28.034Z,53.68
2023-04-11T10:43:15.377Z,53.19
2023-04-11T10:46:02.707Z,52.92
2023-04-11T10:48:50.084Z,52.48
2023-04-11T10:51:37.426Z,52.41
2023-04-11T10:54:24.791Z,52.31
2023-04-11T10:57:12.100Z,52.35
2023-04-11T10:59:59.416Z,52.07
2023-04-11T11:02:46.950Z,52.25
2023-04-11T11:05:34.385Z,51.84
2023-04-11T11:08:21.765Z,51.46
2023-04-11T11:11:09.089Z,50.81
2023-04-11T11:13:56.730Z,51.23
2023-04-11T11:16:45.115Z,51.10
2023-04-11T11:19:32.568Z,51.12
2023-04-11T11:22:19.869Z,50.85
2023-04-11T11:25:07.222Z,50.01
2023-04-11T11:27:54.535Z,49.44
2023-04-11T11:30:41.878Z,48.86
2023-04-11T11:33:29.275Z,48.41
2023-04-11T11:36:16.870Z,47.96
2023-04-11T11:39:04.180Z,48.14
2023-04-11T11:41:51.536Z,48.27
2023-04-11T11:44:38.929Z,45.59
2023-04-11T11:47:26.286Z,45.16
2023-04-11T11:50:13.597Z,45.24
2023-04-11T11:53:00.952Z,44.42
2023-04-11T11:55:48.267Z,44.11
2023-04-11T11:58:35.642Z,44.49
2023-04-11T12:01:22.953Z,44.05
2023-04-11T12:04:10.370Z,44.56
2023-04-11T12:06:57.870Z,44.88
2023-04-11T12:09:45.246Z,45.02
2023-04-11T12:12:32.597Z,44.68
2023-04-11T12:15:19.979Z,42.90
2023-04-11T12:18:07.398Z,42.84
2023-04-11T12:20:54.767Z,41.96
2023-04-11T12:23:42.081Z,41.61
2023-04-11T12:26:29.407Z,41.73
2023-04-11T12:29:16.719Z,42.28
2023-04-11T12:32:04.138Z,42.69
2023-04-11T12:34:51.453Z,41.11
2023-04-11T12:37:38.774Z,40.25
2023-04-11T12:40:26.104Z,40.11
2023-04-11T12:43:13.446Z,40.16
2023-04-11T12:46:00.781Z,39.79
2023-04-11T12:48:48.094Z,37.94
2023-04-11T12:51:35.464Z,38.87
2023-04-11T12:54:22.815Z,38.88
2023-04-11T12:57:10.160Z,39.29
2023-04-11T12:59:57.480Z,39.39
2023-04-11T13:02:45.482Z,38.69
2023-04-11T13:05:33.079Z,38.50
2023-04-11T13:08:20.454Z,38.18
2023-04-11T13:11:07.752Z,38.54
2023-04-11T13:13:55.069Z,38.49
2023-04-11T13:16:42.560Z,38.32
2023-04-11T13:19:30.091Z,38.32
2023-04-11T13:22:17.368Z,38.32
2023-04-11T13:25:04.736Z,38.53
2023-04-11T13:27:52.083Z,38.35
2023-04-11T13:30:39.430Z,37.98
2023-04-11T13:33:26.774Z,37.50
2023-04-11T13:36:14.119Z,37.61
2023-04-11T13:39:01.430Z,37.33
2023-04-11T13:41:48.789Z,37.67
2023-04-11T13:44:36.106Z,38.49
2023-04-11T13:47:23.561Z,38.71
2023-04-11T13:50:10.976Z,38.82
2023-04-11T13:52:58.463Z,39.91
2023-04-11T13:55:45.787Z,40.03
2023-04-11T13:58:33.112Z,40.28
2023-04-11T14:01:20.455Z,39.89
2023-04-11T14:04:07.939Z,40.01
2023-04-11T14:06:55.407Z,40.96
2023-04-11T14:09:42.746Z,42.66
2023-04-11T14:12:30.133Z,44.08
2023-04-11T14:15:18.296Z,44.69
2023-04-11T14:18:06.789Z,45.07
2023-04-11T14:20:54.145Z,45.21
2023-04-11T14:23:41.457Z,45.07
2023-04-11T14:26:28.776Z,46.00
2023-04-11T14:29:16.286Z,46.10
2023-04-11T14:32:03.746Z,46.34
2023-04-11T14:34:51.139Z,46.46
2023-04-11T14:37:38.482Z,46.65
2023-04-11T14:40:25.826Z,46.68
2023-04-11T14:43:13.188Z,46.78
2023-04-11T14:46:00.497Z,46.51
2023-04-11T14:48:47.843Z,47.17
2023-04-11T14:51:35.178Z,46.93
2023-04-11T14:54:22.611Z,46.99
2023-04-11T14:57:09.948Z,46.69
2023-04-11T14:59:57.298Z,46.35
2023-04-11T15:02:44.694Z,46.10
2023-04-11T15:05:32.075Z,45.63
2023-04-11T15:08:19.417Z,45.51
2023-04-11T15:11:06.807Z,45.74
2023-04-11T15:13:54.365Z,46.35
2023-04-11T15:16:41.864Z,46.57
2023-04-11T15:19:29.156Z,46.55
2023-04-11T15:22:16.512Z,46.12
2023-04-11T15:25:03.824Z,45.03
2023-04-11T15:27:51.155Z,42.68
2023-04-11T15:30:38.489Z,42.57
2023-04-11T15:33:25.852Z,41.28
2023-04-11T15:36:13.178Z,40.65
2023-04-11T15:39:00.566Z,40.08
2023-04-11T15:41:47.840Z,39.64
2023-04-11T15:44:35.111Z,38.75
2023-04-11T15:47:22.412Z,38.43
2023-04-11T15:50:09.753Z,38.69
2023-04-11T15:52:57.837Z,38.66
2023-04-11T15:55:45.297Z,38.73
2023-04-11T15:58:33.830Z,38.94
2023-04-11T16:01:21.486Z,38.98
2023-04-11T16:04:08.929Z,39.01
2023-04-11T16:06:56.297Z,39.51
2023-04-11T16:09:43.617Z,39.73
2023-04-11T16:12:30.989Z,39.71
2023-04-11T16:15:18.324Z,39.85
2023-04-11T16:18:05.798Z,39.83
2023-04-11T16:20:53.152Z,40.18
2023-04-11T16:23:40.465Z,40.52
2023-04-11T16:26:27.789Z,40.31
2023-04-11T16:29:15.108Z,40.74
2023-04-11T16:32:02.584Z,40.59
2023-04-11T16:34:50.035Z,40.62
2023-04-11T16:37:37.374Z,40.76
2023-04-11T16:40:24.782Z,41.11
2023-04-11T16:43:12.116Z,41.14
2023-04-11T16:45:59.458Z,41.30
2023-04-11T16:48:46.792Z,41.45
2023-04-11T16:51:34.176Z,41.23
2023-04-11T16:54:21.479Z,41.46
2023-04-11T16:57:08.866Z,41.45
2023-04-11T16:59:56.189Z,41.73
2023-04-11T17:02:43.660Z,41.79
2023-04-11T17:05:31.065Z,41.83
2023-04-11T17:08:18.454Z,41.91
2023-04-11T17:11:05.842Z,41.57
2023-04-11T17:13:53.203Z,41.43
2023-04-11T17:16:40.541Z,41.17
2023-04-11T17:19:27.913Z,40.98
2023-04-11T17:22:15.229Z,40.62
2023-04-11T17:25:02.566Z,40.25
2023-04-11T17:27:49.910Z,40.21
2023-04-11T17:30:37.297Z,40.08
2023-04-11T17:33:24.689Z,40.24
2023-04-11T17:36:12.222Z,39.94
2023-04-11T17:38:59.601Z,40.02
2023-04-11T17:41:46.906Z,39.82
2023-04-11T17:44:34.278Z,39.87
2023-04-11T17:47:21.613Z,39.77
2023-04-11T17:50:08.947Z,39.84
2023-04-11T17:52:56.263Z,39.92
2023-04-11T17:55:43.561Z,39.74
2023-04-11T17:58:30.899Z,39.89
2023-04-11T18:01:18.251Z,39.85
2023-04-11T18:04:05.683Z,39.83
2023-04-11T18:06:53.031Z,39.99
2023-04-11T18:09:40.365Z,39.87
2023-04-11T18:12:29.533Z,39.82
2023-04-11T18:15:17.193Z,39.82
2023-04-11T18:18:04.580Z,39.98
2023-04-11T18:20:51.941Z,39.65
2023-04-11T18:23:39.307Z,39.67
2023-04-11T18:26:26.668Z,39.92
2023-04-11T18:29:13.992Z,40.00
2023-04-11T18:32:01.300Z,39.83
2023-04-11T18:34:48.746Z,39.79
2023-04-11T18:37:36.085Z,39.88
2023-04-11T18:40:23.447Z,39.82
2023-04-11T18:43:10.757Z,39.87
2023-04-11T18:45:58.286Z,39.84
2023-04-11T18:48:45.650Z,39.95
2023-04-11T18:51:32.969Z,39.88
2023-04-11T18:54:20.246Z,39.97
2023-04-11T18:57:09.122Z,39.93
2023-04-11T18:59:57.681Z,39.95
2023-04-11T19:02:48.485Z,40.19
2023-04-11T19:05:36.276Z,39.96
2023-04-11T19:08:23.805Z,39.92
2023-04-11T19:11:11.193Z,39.99
2023-04-11T19:13:58.712Z,39.99
2023-04-11T19:16:46.458Z,40.09
2023-04-11T19:19:33.884Z,39.97
2023-04-11T19:22:21.208Z,40.19
2023-04-11T19:25:08.564Z,40.24
2023-04-11T19:27:55.910Z,40.07
2023-04-11T19:30:43.249Z,40.09
2023-04-11T19:33:30.583Z,40.27
2023-04-11T19:36:17.931Z,40.18
2023-04-11T19:39:05.274Z,40.30
2023-04-11T19:41:52.610Z,40.23
2023-04-11T19:44:40.000Z,40.35
2023-04-11T19:47:27.396Z,40.31
2023-04-11T19:50:14.738Z,40.46
2023-04-11T19:53:02.066Z,40.57
2023-04-11T19:55:49.397Z,40.68
2023-04-11T19:58:36.696Z,40.59
2023-04-11T20:01:24.053Z,40.83
2023-04-11T20:04:11.555Z,41.05
2023-04-11T20:06:58.987Z,40.93
2023-04-11T20:09:46.281Z,41.16
2023-04-11T20:12:33.635Z,41.03
2023-04-11T20:15:20.963Z,41.08
2023-04-11T20:18:08.333Z,41.20
2023-04-11T20:20:55.678Z,41.24
2023-04-11T20:23:43.363Z,41.35
2023-04-11T20:26:30.698Z,41.43
2023-04-11T20:29:18.136Z,41.38
2023-04-11T20:32:05.539Z,41.50
2023-04-11T20:34:52.913Z,41.57
2023-04-11T20:37:40.280Z,41.39
2023-04-11T20:40:27.639Z,41.48
2023-04-11T20:43:14.940Z,41.50
2023-04-11T20:46:02.281Z,41.56
2023-04-11T20:48:49.588Z,41.40
2023-04-11T20:51:36.932Z,41.31
2023-04-11T20:54:24.258Z,41.38
2023-04-11T20:57:11.599Z,41.48
2023-04-11T20:59:58.967Z,41.49
2023-04-11T21:02:46.421Z,41.49
2023-04-11T21:05:33.876Z,41.39
2023-04-11T21:08:21.224Z,41.46
2023-04-11T21:11:08.542Z,41.44
2023-04-11T21:13:56.087Z,41.64
2023-04-11T21:16:43.524Z,41.73
2023-04-11T21:19:30.902Z,41.76
2023-04-11T21:22:18.211Z,41.94
2023-04-11T21:25:05.568Z,42.00
2023-04-11T21:27:52.863Z,41.81
2023-04-11T21:30:40.228Z,41.95
2023-04-11T21:33:27.575Z,41.97
2023-04-11T21:36:14.967Z,41.84
2023-04-11T21:39:02.402Z,41.88
2023-04-11T21:41:49.780Z,41.93
2023-04-11T21:44:37.130Z,41.95
2023-04-11T21:47:24.494Z,41.99
2023-04-11T21:50:11.837Z,42.25
2023-04-11T21:52:59.219Z,42.06
2023-04-11T21:55:46.527Z,42.22
2023-04-11T21:58:33.854Z,42.01
2023-04-11T22:01:21.168Z,42.04
2023-04-11T22:04:08.707Z,42.03
2023-04-11T22:06:56.148Z,42.19
2023-04-11T22:09:43.511Z,42.50
2023-04-11T22:12:30.840Z,42.30
2023-04-11T22:15:18.251Z,42.29
2023-04-11T22:18:05.765Z,42.17
2023-04-11T22:20:53.143Z,42.17
2023-04-11T22:23:40.486Z,42.13
2023-04-11T22:26:27.823Z,42.30
2023-04-11T22:29:15.146Z,42.22
2023-04-11T22:32:02.539Z,42.12
2023-04-11T22:34:50.002Z,42.27
2023-04-11T22:37:37.429Z,42.27
2023-04-11T22:40:24.725Z,42.18
2023-04-11T22:43:12.057Z,42.28
2023-04-11T22:45:59.450Z,42.12
2023-04-11T22:48:46.823Z,42.13
2023-04-11T22:51:34.097Z,42.29
2023-04-11T22:54:21.429Z,42.18
2023-04-11T22:57:08.779Z,42.27
2023-04-11T22:59:56.150Z,42.08
2023-04-11T23:02:43.460Z,42.26
2023-04-11T23:05:31.105Z,42.21
2023-04-11T23:08:18.420Z,42.26
2023-04-11T23:11:05.727Z,42.15
2023-04-11T23:13:53.064Z,42.26
2023-04-11T23:16:40.571Z,42.31
2023-04-11T23:19:27.877Z,42.34
2023-04-11T23:22:15.193Z,42.20
2023-04-11T23:25:02.557Z,42.43
2023-04-11T23:27:49.927Z,42.15
2023-04-11T23:30:37.315Z,42.43
2023-04-11T23:33:25.060Z,42.45
2023-04-11T23:36:12.378Z,42.49
2023-04-11T23:38:59.697Z,42.46
2023-04-11T23:41:47.050Z,42.48
2023-04-11T23:44:34.389Z,42.51
2023-04-11T23:47:21.691Z,42.58
2023-04-11T23:50:08.987Z,42.51
2023-04-11T23:52:56.265Z,42.59
2023-04-11T23:55:43.578Z,42.55
2023-04-11T23:58:30.841Z,42.48
